sensor_id;sensor_type;location;lat;lon;timestamp;pressure;altitude;pressure_sealevel;temperature;humidity
74834;BME280;63361;52.384;20.930;2023-04-19T00:02:05;101043.47;;;7.61;100.00
74834;BME280;63361;52.384;20.930;2023-04-19T00:04:33;101060.16;;;7.63;100.00
74834;BME280;63361;52.384;20.930;2023-04-19T00:06:58;101044.44;;;7.55;100.00
74834;BME280;63361;52.384;20.930;2023-04-19T00:09:23;101042.56;;;7.55;100.00
74834;BME280;63361;52.384;20.930;2023-04-19T00:11:49;101045.00;;;7.57;100.00
74834;BME280;63361;52.384;20.930;2023-04-19T00:14:14;101038.00;;;7.56;100.00
74834;BME280;63361;52.384;20.930;2023-04-19T00:16:39;101041.34;;;7.63;100.00
74834;BME280;63361;52.384;20.930;2023-04-19T00:19:05;101040.38;;;7.69;100.00
74834;BME280;63361;52.384;20.930;2023-04-19T00:21:31;101027.34;;;7.61;100.00
74834;BME280;63361;52.384;20.930;2023-04-19T00:23:56;101036.22;;;7.61;100.00
74834;BME280;63361;52.384;20.930;2023-04-19T00:26:22;101037.03;;;7.62;100.00
74834;BME280;63361;52.384;20.930;2023-04-19T00:28:47;101036.47;;;7.60;100.00
74834;BME280;63361;52.384;20.930;2023-04-19T00:31:12;101027.84;;;7.58;100.00
74834;BME280;63361;52.384;20.930;2023-04-19T00:33:38;101037.19;;;7.55;100.00
74834;BME280;63361;52.384;20.930;2023-04-19T00:36:03;101024.25;;;7.52;100.00
74834;BME280;63361;52.384;20.930;2023-04-19T00:38:28;101017.09;;;7.41;100.00
74834;BME280;63361;52.384;20.930;2023-04-19T00:40:54;101018.72;;;7.42;100.00
74834;BME280;63361;52.384;20.930;2023-04-19T00:43:19;101012.91;;;7.33;100.00
74834;BME280;63361;52.384;20.930;2023-04-19T00:45:46;101018.94;;;7.40;100.00
74834;BME280;63361;52.384;20.930;2023-04-19T00:48:12;101002.75;;;7.35;100.00
74834;BME280;63361;52.384;20.930;2023-04-19T00:50:39;101007.00;;;7.31;100.00
74834;BME280;63361;52.384;20.930;2023-04-19T00:53:06;101013.19;;;7.32;100.00
74834;BME280;63361;52.384;20.930;2023-04-19T00:55:31;101000.25;;;7.29;100.00
74834;BME280;63361;52.384;20.930;2023-04-19T00:57:57;101004.22;;;7.26;100.00
74834;BME280;63361;52.384;20.930;2023-04-19T01:00:23;101008.06;;;7.30;100.00
74834;BME280;63361;52.384;20.930;2023-04-19T01:02:48;101008.69;;;7.37;100.00
74834;BME280;63361;52.384;20.930;2023-04-19T01:05:14;100982.75;;;7.26;100.00
74834;BME280;63361;52.384;20.930;2023-04-19T01:07:40;100976.69;;;7.19;100.00
74834;BME280;63361;52.384;20.930;2023-04-19T01:10:06;100987.53;;;7.24;100.00
74834;BME280;63361;52.384;20.930;2023-04-19T01:12:32;100989.16;;;7.25;100.00
74834;BME280;63361;52.384;20.930;2023-04-19T01:14:57;100983.56;;;7.27;100.00
74834;BME280;63361;52.384;20.930;2023-04-19T01:17:22;100978.09;;;7.22;100.00
74834;BME280;63361;52.384;20.930;2023-04-19T01:19:47;100967.59;;;7.20;100.00
74834;BME280;63361;52.384;20.930;2023-04-19T01:22:19;100968.81;;;7.13;100.00
74834;BME280;63361;52.384;20.930;2023-04-19T01:24:45;100975.38;;;7.05;100.00
74834;BME280;63361;52.384;20.930;2023-04-19T01:27:10;100967.84;;;7.02;100.00
74834;BME280;63361;52.384;20.930;2023-04-19T01:29:38;100979.94;;;7.04;100.00
74834;BME280;63361;52.384;20.930;2023-04-19T01:32:03;100967.84;;;7.02;100.00
74834;BME280;63361;52.384;20.930;2023-04-19T01:34:28;100974.91;;;7.08;100.00
74834;BME280;63361;52.384;20.930;2023-04-19T01:36:54;100961.56;;;6.96;100.00
74834;BME280;63361;52.384;20.930;2023-04-19T01:39:20;100963.84;;;7.04;100.00
74834;BME280;63361;52.384;20.930;2023-04-19T01:41:45;100966.03;;;7.07;100.00
74834;BME280;63361;52.384;20.930;2023-04-19T01:44:11;100965.47;;;7.05;100.00
74834;BME280;63361;52.384;20.930;2023-04-19T01:46:36;100963.84;;;7.04;100.00
74834;BME280;63361;52.384;20.930;2023-04-19T01:49:03;100949.78;;;6.97;100.00
74834;BME280;63361;52.384;20.930;2023-04-19T01:51:28;100959.38;;;7.10;100.00
74834;BME280;63361;52.384;20.930;2023-04-19T01:53:53;100940.66;;;6.98;100.00
74834;BME280;63361;52.384;20.930;2023-04-19T01:56:19;100949.06;;;7.02;100.00
74834;BME280;63361;52.384;20.930;2023-04-19T01:58:46;100942.38;;;7.04;100.00
74834;BME280;63361;52.384;20.930;2023-04-19T02:01:11;100963.34;;;7.07;100.00
74834;BME280;63361;52.384;20.930;2023-04-19T02:03:39;100957.19;;;7.07;100.00
74834;BME280;63361;52.384;20.930;2023-04-19T02:06:05;100945.22;;;6.98;100.00
74834;BME280;63361;52.384;20.930;2023-04-19T02:08:34;100936.94;;;6.99;100.00
74834;BME280;63361;52.384;20.930;2023-04-19T02:10:59;100936.03;;;6.94;100.00
74834;BME280;63361;52.384;20.930;2023-04-19T02:13:24;100928.78;;;6.94;100.00
74834;BME280;63361;52.384;20.930;2023-04-19T02:15:50;100943.84;;;6.95;100.00
74834;BME280;63361;52.384;20.930;2023-04-19T02:18:15;100927.88;;;6.89;100.00
74834;BME280;63361;52.384;20.930;2023-04-19T02:20:42;100937.16;;;6.98;100.00
74834;BME280;63361;52.384;20.930;2023-04-19T02:23:08;100923.41;;;6.94;100.00
74834;BME280;63361;52.384;20.930;2023-04-19T02:25:33;100942.13;;;7.06;100.00
74834;BME280;63361;52.384;20.930;2023-04-19T02:27:58;100935.88;;;7.00;100.00
74834;BME280;63361;52.384;20.930;2023-04-19T02:30:24;100942.94;;;7.06;100.00
74834;BME280;63361;52.384;20.930;2023-04-19T02:32:49;100945.72;;;7.12;100.00
74834;BME280;63361;52.384;20.930;2023-04-19T02:35:14;100925.13;;;7.00;100.00
74834;BME280;63361;52.384;20.930;2023-04-19T02:37:41;100934.25;;;6.99;100.00
74834;BME280;63361;52.384;20.930;2023-04-19T02:40:06;100878.84;;;6.77;100.00
74834;BME280;63361;52.384;20.930;2023-04-19T02:42:32;100935.69;;;7.07;100.00
74834;BME280;63361;52.384;20.930;2023-04-19T02:44:57;100915.75;;;7.03;100.00
74834;BME280;63361;52.384;20.930;2023-04-19T02:47:23;100926.84;;;7.06;100.00
74834;BME280;63361;52.384;20.930;2023-04-19T02:49:48;100911.97;;;6.99;100.00
74834;BME280;63361;52.384;20.930;2023-04-19T02:52:13;100918.78;;;7.06;100.00
74834;BME280;63361;52.384;20.930;2023-04-19T02:54:39;100906.13;;;7.02;100.00
74834;BME280;63361;52.384;20.930;2023-04-19T02:57:04;100896.91;;;6.98;100.00
74834;BME280;63361;52.384;20.930;2023-04-19T02:59:30;100893.81;;;6.89;100.00
74834;BME280;63361;52.384;20.930;2023-04-19T03:01:55;100894.31;;;6.86;100.00
74834;BME280;63361;52.384;20.930;2023-04-19T03:04:20;100890.31;;;6.89;100.00
74834;BME280;63361;52.384;20.930;2023-04-19T03:06:46;100891.22;;;6.94;100.00
74834;BME280;63361;52.384;20.930;2023-04-19T03:09:11;100890.97;;;6.96;100.00
74834;BME280;63361;52.384;20.930;2023-04-19T03:11:36;100884.78;;;6.95;100.00
74834;BME280;63361;52.384;20.930;2023-04-19T03:14:02;100884.56;;;6.97;100.00
74834;BME280;63361;52.384;20.930;2023-04-19T03:16:28;100881.19;;;6.90;100.00
74834;BME280;63361;52.384;20.930;2023-04-19T03:18:54;100879.91;;;6.92;100.00
74834;BME280;63361;52.384;20.930;2023-04-19T03:21:20;100882.44;;;6.99;100.00
74834;BME280;63361;52.384;20.930;2023-04-19T03:23:45;100875.84;;;6.90;100.00
74834;BME280;63361;52.384;20.930;2023-04-19T03:26:10;100882.09;;;6.95;100.00
74834;BME280;63361;52.384;20.930;2023-04-19T03:28:35;100879.03;;;6.87;100.00
74834;BME280;63361;52.384;20.930;2023-04-19T03:31:01;100865.66;;;6.92;100.00
74834;BME280;63361;52.384;20.930;2023-04-19T03:33:26;100884.22;;;6.93;100.00
74834;BME280;63361;52.384;20.930;2023-04-19T03:35:52;100869.91;;;6.88;100.00
74834;BME280;63361;52.384;20.930;2023-04-19T03:38:17;100859.66;;;6.85;100.00
74834;BME280;63361;52.384;20.930;2023-04-19T03:40:42;100871.03;;;6.92;100.00
74834;BME280;63361;52.384;20.930;2023-04-19T03:43:08;100865.59;;;6.87;100.00
74834;BME280;63361;52.384;20.930;2023-04-19T03:45:33;100869.16;;;6.92;100.00
74834;BME280;63361;52.384;20.930;2023-04-19T03:47:58;100848.44;;;6.88;100.00
74834;BME280;63361;52.384;20.930;2023-04-19T03:50:24;100857.63;;;6.92;100.00
74834;BME280;63361;52.384;20.930;2023-04-19T03:52:49;100863.66;;;6.99;100.00
74834;BME280;63361;52.384;20.930;2023-04-19T03:55:14;100862.19;;;6.91;100.00
74834;BME280;63361;52.384;20.930;2023-04-19T03:57:40;100855.75;;;6.92;100.00
74834;BME280;63361;52.384;20.930;2023-04-19T04:00:05;100854.94;;;6.92;100.00
74834;BME280;63361;52.384;20.930;2023-04-19T04:02:32;100861.31;;;6.86;100.00
74834;BME280;63361;52.384;20.930;2023-04-19T04:04:57;100848.75;;;6.91;100.00
74834;BME280;63361;52.384;20.930;2023-04-19T04:07:22;100844.97;;;6.87;100.00
74834;BME280;63361;52.384;20.930;2023-04-19T04:09:49;100843.00;;;6.83;100.00
74834;BME280;63361;52.384;20.930;2023-04-19T04:12:14;100846.81;;;6.87;100.00
74834;BME280;63361;52.384;20.930;2023-04-19T04:14:40;100811.63;;;6.66;100.00
74834;BME280;63361;52.384;20.930;2023-04-19T04:17:05;100850.22;;;6.82;100.00
74834;BME280;63361;52.384;20.930;2023-04-19T04:19:30;100825.84;;;6.67;100.00
74834;BME280;63361;52.384;20.930;2023-04-19T04:21:56;100853.00;;;6.87;100.00
74834;BME280;63361;52.384;20.930;2023-04-19T04:24:21;100812.66;;;6.65;100.00
74834;BME280;63361;52.384;20.930;2023-04-19T04:26:47;100837.31;;;6.79;100.00
74834;BME280;63361;52.384;20.930;2023-04-19T04:29:14;100836.25;;;6.80;100.00
74834;BME280;63361;52.384;20.930;2023-04-19T04:31:39;100840.22;;;6.78;100.00
74834;BME280;63361;52.384;20.930;2023-04-19T04:34:04;100832.75;;;6.80;100.00
74834;BME280;63361;52.384;20.930;2023-04-19T04:36:30;100831.84;;;6.74;100.00
74834;BME280;63361;52.384;20.930;2023-04-19T04:38:56;100835.53;;;6.85;100.00
74834;BME280;63361;52.384;20.930;2023-04-19T04:41:21;100830.63;;;6.82;100.00
74834;BME280;63361;52.384;20.930;2023-04-19T04:43:47;100824.84;;;6.73;100.00
74834;BME280;63361;52.384;20.930;2023-04-19T04:46:15;100836.72;;;6.77;100.00
74834;BME280;63361;52.384;20.930;2023-04-19T04:48:41;100822.34;;;6.66;100.00
74834;BME280;63361;52.384;20.930;2023-04-19T04:51:06;100834.75;;;6.72;100.00
74834;BME280;63361;52.384;20.930;2023-04-19T04:53:31;100832.25;;;6.66;100.00
74834;BME280;63361;52.384;20.930;2023-04-19T04:55:57;100828.53;;;6.67;100.00
74834;BME280;63361;52.384;20.930;2023-04-19T04:58:22;100832.03;;;6.67;100.00
74834;BME280;63361;52.384;20.930;2023-04-19T05:00:47;100827.53;;;6.73;100.00
74834;BME280;63361;52.384;20.930;2023-04-19T05:03:13;100804.16;;;6.68;100.00
74834;BME280;63361;52.384;20.930;2023-04-19T05:05:38;100829.34;;;6.84;100.00
74834;BME280;63361;52.384;20.930;2023-04-19T05:08:04;100822.59;;;6.82;100.00
74834;BME280;63361;52.384;20.930;2023-04-19T05:10:30;100826.91;;;6.83;100.00
74834;BME280;63361;52.384;20.930;2023-04-19T05:12:55;100828.84;;;6.87;100.00
74834;BME280;63361;52.384;20.930;2023-04-19T05:15:21;100820.88;;;6.92;100.00
74834;BME280;63361;52.384;20.930;2023-04-19T05:17:46;100829.72;;;6.93;100.00
74834;BME280;63361;52.384;20.930;2023-04-19T05:20:11;100816.41;;;6.98;100.00
74834;BME280;63361;52.384;20.930;2023-04-19T05:22:38;100822.00;;;6.96;100.00
74834;BME280;63361;52.384;20.930;2023-04-19T05:25:04;100812.44;;;6.84;100.00
74834;BME280;63361;52.384;20.930;2023-04-19T05:27:30;100815.75;;;6.91;100.00
74834;BME280;63361;52.384;20.930;2023-04-19T05:29:55;100814.53;;;6.98;100.00
74834;BME280;63361;52.384;20.930;2023-04-19T05:32:20;100822.09;;;7.01;100.00
74834;BME280;63361;52.384;20.930;2023-04-19T05:34:46;100798.09;;;6.95;100.00
74834;BME280;63361;52.384;20.930;2023-04-19T05:37:11;100821.03;;;7.02;100.00
74834;BME280;63361;52.384;20.930;2023-04-19T05:39:36;100819.72;;;7.05;100.00
74834;BME280;63361;52.384;20.930;2023-04-19T05:42:02;100816.53;;;7.08;100.00
74834;BME280;63361;52.384;20.930;2023-04-19T05:44:27;100808.97;;;7.05;100.00
74834;BME280;63361;52.384;20.930;2023-04-19T05:46:53;100807.34;;;7.04;100.00
74834;BME280;63361;52.384;20.930;2023-04-19T05:49:18;100802.16;;;6.97;100.00
74834;BME280;63361;52.384;20.930;2023-04-19T05:51:43;100813.38;;;6.94;100.00
74834;BME280;63361;52.384;20.930;2023-04-19T05:54:08;100798.47;;;7.03;100.00
74834;BME280;63361;52.384;20.930;2023-04-19T05:56:37;100810.59;;;7.06;100.00
74834;BME280;63361;52.384;20.930;2023-04-19T05:59:02;100808.97;;;7.05;100.00
74834;BME280;63361;52.384;20.930;2023-04-19T06:01:27;100800.19;;;7.10;100.00
74834;BME280;63361;52.384;20.930;2023-04-19T06:03:53;100804.25;;;7.12;100.00
74834;BME280;63361;52.384;20.930;2023-04-19T06:06:20;100808.38;;;7.20;100.00
74834;BME280;63361;52.384;20.930;2023-04-19T06:08:46;100802.38;;;7.13;100.00
74834;BME280;63361;52.384;20.930;2023-04-19T06:11:11;100801.34;;;7.14;100.00
74834;BME280;63361;52.384;20.930;2023-04-19T06:13:37;100807.88;;;7.23;100.00
74834;BME280;63361;52.384;20.930;2023-04-19T06:16:02;100812.53;;;7.27;100.00
74834;BME280;63361;52.384;20.930;2023-04-19T06:18:28;100801.72;;;7.22;100.00
74834;BME280;63361;52.384;20.930;2023-04-19T06:20:53;100806.16;;;7.33;100.00
74834;BME280;63361;52.384;20.930;2023-04-19T06:23:19;100796.97;;;7.29;100.00
74834;BME280;63361;52.384;20.930;2023-04-19T06:25:44;100805.00;;;7.46;100.00
74834;BME280;63361;52.384;20.930;2023-04-19T06:28:12;100805.22;;;7.66;100.00
74834;BME280;63361;52.384;20.930;2023-04-19T06:30:38;100796.41;;;7.71;100.00
74834;BME280;63361;52.384;20.930;2023-04-19T06:33:03;100779.09;;;7.84;100.00
74834;BME280;63361;52.384;20.930;2023-04-19T06:35:28;100792.34;;;8.17;100.00
74834;BME280;63361;52.384;20.930;2023-04-19T06:37:53;100786.88;;;8.34;100.00
74834;BME280;63361;52.384;20.930;2023-04-19T06:40:19;100787.19;;;8.37;100.00
74834;BME280;63361;52.384;20.930;2023-04-19T06:42:44;100794.28;;;8.49;100.00
74834;BME280;63361;52.384;20.930;2023-04-19T06:45:10;100792.16;;;8.56;100.00
74834;BME280;63361;52.384;20.930;2023-04-19T06:47:35;100764.31;;;8.35;100.00
74834;BME280;63361;52.384;20.930;2023-04-19T06:50:01;100782.72;;;8.48;100.00
74834;BME280;63361;52.384;20.930;2023-04-19T06:52:27;100778.81;;;8.34;100.00
74834;BME280;63361;52.384;20.930;2023-04-19T06:54:53;100786.41;;;8.42;100.00
74834;BME280;63361;52.384;20.930;2023-04-19T06:57:18;100784.25;;;8.39;100.00
74834;BME280;63361;52.384;20.930;2023-04-19T06:59:43;100795.59;;;8.46;100.00
74834;BME280;63361;52.384;20.930;2023-04-19T07:02:09;100797.91;;;8.64;100.00
74834;BME280;63361;52.384;20.930;2023-04-19T07:04:35;100796.78;;;8.55;100.00
74834;BME280;63361;52.384;20.930;2023-04-19T07:07:01;100791.03;;;8.46;100.00
74834;BME280;63361;52.384;20.930;2023-04-19T07:09:27;100805.38;;;8.57;100.00
74834;BME280;63361;52.384;20.930;2023-04-19T07:11:53;100801.72;;;8.73;100.00
74834;BME280;63361;52.384;20.930;2023-04-19T07:14:18;100790.72;;;9.17;100.00
74834;BME280;63361;52.384;20.930;2023-04-19T07:16:44;100799.03;;;9.68;100.00
74834;BME280;63361;52.384;20.930;2023-04-19T07:19:10;100800.22;;;9.92;100.00
74834;BME280;63361;52.384;20.930;2023-04-19T07:21:36;100796.38;;;9.78;100.00
74834;BME280;63361;52.384;20.930;2023-04-19T07:24:03;100800.91;;;9.57;100.00
74834;BME280;63361;52.384;20.930;2023-04-19T07:26:28;100803.53;;;9.42;100.00
74834;BME280;63361;52.384;20.930;2023-04-19T07:28:54;100788.06;;;9.22;100.00
74834;BME280;63361;52.384;20.930;2023-04-19T07:31:20;100795.31;;;9.16;100.00
74834;BME280;63361;52.384;20.930;2023-04-19T07:33:45;100799.28;;;9.09;100.00
74834;BME280;63361;52.384;20.930;2023-04-19T07:36:11;100796.00;;;8.97;100.00
74834;BME280;63361;52.384;20.930;2023-04-19T07:38:36;100798.34;;;8.88;100.00
74834;BME280;63361;52.384;20.930;2023-04-19T07:41:02;100787.66;;;8.61;100.00
74834;BME280;63361;52.384;20.930;2023-04-19T07:43:29;100808.59;;;8.54;100.00
74834;BME280;63361;52.384;20.930;2023-04-19T07:45:54;100798.78;;;8.43;100.00
74834;BME280;63361;52.384;20.930;2023-04-19T07:48:20;100785.25;;;8.33;100.00
74834;BME280;63361;52.384;20.930;2023-04-19T07:50:45;100792.59;;;8.42;100.00
74834;BME280;63361;52.384;20.930;2023-04-19T07:53:11;100784.78;;;8.73;100.00
74834;BME280;63361;52.384;20.930;2023-04-19T07:55:36;100790.50;;;8.81;100.00
74834;BME280;63361;52.384;20.930;2023-04-19T07:58:01;100801.06;;;8.93;100.00
74834;BME280;63361;52.384;20.930;2023-04-19T08:00:27;100791.63;;;8.91;100.00
74834;BME280;63361;52.384;20.930;2023-04-19T08:02:54;100801.88;;;8.94;100.00
74834;BME280;63361;52.384;20.930;2023-04-19T08:05:21;100782.28;;;9.03;100.00
74834;BME280;63361;52.384;20.930;2023-04-19T08:07:47;100793.03;;;9.45;100.00
74834;BME280;63361;52.384;20.930;2023-04-19T08:10:12;100798.19;;;10.50;100.00
74834;BME280;63361;52.384;20.930;2023-04-19T08:12:38;100800.78;;;11.26;100.00
74834;BME280;63361;52.384;20.930;2023-04-19T08:15:05;100806.59;;;11.63;100.00
74834;BME280;63361;52.384;20.930;2023-04-19T08:17:31;100803.28;;;11.87;100.00
74834;BME280;63361;52.384;20.930;2023-04-19T08:19:57;100787.59;;;11.89;100.00
74834;BME280;63361;52.384;20.930;2023-04-19T08:22:22;100787.84;;;12.37;100.00
74834;BME280;63361;52.384;20.930;2023-04-19T08:24:51;100793.53;;;11.11;100.00
74834;BME280;63361;52.384;20.930;2023-04-19T08:27:16;100799.75;;;10.86;100.00
74834;BME280;63361;52.384;20.930;2023-04-19T08:29:42;100793.84;;;10.44;100.00
74834;BME280;63361;52.384;20.930;2023-04-19T08:32:07;100779.53;;;10.33;100.00
74834;BME280;63361;52.384;20.930;2023-04-19T08:34:34;100791.16;;;10.44;100.00
74834;BME280;63361;52.384;20.930;2023-04-19T08:37:00;100793.56;;;10.55;100.00
74834;BME280;63361;52.384;20.930;2023-04-19T08:39:26;100785.47;;;10.35;100.00
74834;BME280;63361;52.384;20.930;2023-04-19T08:41:51;100793.81;;;10.29;100.00
74834;BME280;63361;52.384;20.930;2023-04-19T08:44:18;100782.78;;;10.45;100.00
74834;BME280;63361;52.384;20.930;2023-04-19T08:46:44;100795.75;;;10.58;100.00
74834;BME280;63361;52.384;20.930;2023-04-19T08:49:10;100790.63;;;10.62;100.00
74834;BME280;63361;52.384;20.930;2023-04-19T08:51:37;100790.06;;;10.80;100.00
74834;BME280;63361;52.384;20.930;2023-04-19T08:54:03;100796.28;;;10.81;100.00
74834;BME280;63361;52.384;20.930;2023-04-19T08:56:29;100801.63;;;11.01;100.00
74834;BME280;63361;52.384;20.930;2023-04-19T08:58:55;100792.78;;;10.65;100.00
74834;BME280;63361;52.384;20.930;2023-04-19T09:01:20;100794.94;;;10.53;100.00
74834;BME280;63361;52.384;20.930;2023-04-19T09:03:46;100780.09;;;10.66;100.00
74834;BME280;63361;52.384;20.930;2023-04-19T09:06:11;100792.22;;;10.83;100.00
74834;BME280;63361;52.384;20.930;2023-04-19T09:08:39;100795.47;;;10.75;100.00
74834;BME280;63361;52.384;20.930;2023-04-19T09:11:05;100796.00;;;10.62;100.00
74834;BME280;63361;52.384;20.930;2023-04-19T09:13:31;100794.94;;;10.78;100.00
74834;BME280;63361;52.384;20.930;2023-04-19T09:15:57;100803.28;;;10.97;100.00
74834;BME280;63361;52.384;20.930;2023-04-19T09:18:25;100798.44;;;10.38;100.00
74834;BME280;63361;52.384;20.930;2023-04-19T09:20:51;100802.19;;;10.27;100.00
74834;BME280;63361;52.384;20.930;2023-04-19T09:23:24;100793.50;;;10.10;100.00
74834;BME280;63361;52.384;20.930;2023-04-19T09:25:58;100806.72;;;10.11;100.00
74834;BME280;63361;52.384;20.930;2023-04-19T09:28:29;100812.91;;;10.12;100.00
74834;BME280;63361;52.384;20.930;2023-04-19T09:30:55;100816.69;;;10.01;100.00
74834;BME280;63361;52.384;20.930;2023-04-19T09:35:58;100808.16;;;10.34;100.00
74834;BME280;63361;52.384;20.930;2023-04-19T09:38:23;100809.47;;;10.21;100.00
74834;BME280;63361;52.384;20.930;2023-04-19T09:40:48;100812.38;;;10.10;100.00
74834;BME280;63361;52.384;20.930;2023-04-19T09:43:22;100811.63;;;10.19;100.00
74834;BME280;63361;52.384;20.930;2023-04-19T09:45:48;100813.56;;;10.49;100.00
74834;BME280;63361;52.384;20.930;2023-04-19T09:48:13;100809.16;;;10.18;100.00
74834;BME280;63361;52.384;20.930;2023-04-19T09:51:05;100821.91;;;10.38;100.00
74834;BME280;63361;52.384;20.930;2023-04-19T09:53:31;100808.94;;;10.40;100.00
74834;BME280;63361;52.384;20.930;2023-04-19T09:56:01;100820.03;;;10.79;100.00
74834;BME280;63361;52.384;20.930;2023-04-19T09:58:26;100811.06;;;11.24;100.00
74834;BME280;63361;52.384;20.930;2023-04-19T10:00:52;100808.34;;;11.29;100.00
74834;BME280;63361;52.384;20.930;2023-04-19T10:03:20;100808.94;;;10.90;100.00
74834;BME280;63361;52.384;20.930;2023-04-19T10:05:48;100819.78;;;10.80;100.00
74834;BME280;63361;52.384;20.930;2023-04-19T10:08:14;100814.63;;;10.48;100.00
74834;BME280;63361;52.384;20.930;2023-04-19T10:10:41;100819.22;;;10.48;100.00
74834;BME280;63361;52.384;20.930;2023-04-19T10:13:12;100810.84;;;10.29;100.00
74834;BME280;63361;52.384;20.930;2023-04-19T10:15:40;100823.44;;;10.13;100.00
74834;BME280;63361;52.384;20.930;2023-04-19T10:18:08;100827.56;;;10.21;100.00
74834;BME280;63361;52.384;20.930;2023-04-19T10:20:50;100822.31;;;9.89;100.00
74834;BME280;63361;52.384;20.930;2023-04-19T10:23:17;100811.81;;;9.98;100.00
74834;BME280;63361;52.384;20.930;2023-04-19T10:25:47;100817.72;;;9.95;100.00
74834;BME280;63361;52.384;20.930;2023-04-19T10:28:14;100822.84;;;9.86;100.00
74834;BME280;63361;52.384;20.930;2023-04-19T10:31:01;100827.19;;;9.92;100.00
74834;BME280;63361;52.384;20.930;2023-04-19T10:33:29;100830.53;;;10.19;100.00
74834;BME280;63361;52.384;20.930;2023-04-19T10:35:57;100836.91;;;10.08;100.00
74834;BME280;63361;52.384;20.930;2023-04-19T10:38:39;100836.34;;;9.96;100.00
74834;BME280;63361;52.384;20.930;2023-04-19T10:41:07;100834.78;;;10.05;100.00
74834;BME280;63361;52.384;20.930;2023-04-19T10:43:37;100843.16;;;10.14;100.00
74834;BME280;63361;52.384;20.930;2023-04-19T10:46:12;100838.56;;;10.14;100.00
74834;BME280;63361;52.384;20.930;2023-04-19T10:51:20;100838.66;;;10.70;100.00
74834;BME280;63361;52.384;20.930;2023-04-19T10:56:13;100830.34;;;12.31;100.00
74834;BME280;63361;52.384;20.930;2023-04-19T11:12:03;100839.38;;;12.21;100.00
74834;BME280;63361;52.384;20.930;2023-04-19T11:14:35;100831.66;;;12.39;100.00
74834;BME280;63361;52.384;20.930;2023-04-19T11:17:30;100837.69;;;12.25;100.00
74834;BME280;63361;52.384;20.930;2023-04-19T11:20:00;100839.88;;;12.23;100.00
74834;BME280;63361;52.384;20.930;2023-04-19T11:22:29;100844.16;;;12.68;100.00
74834;BME280;63361;52.384;20.930;2023-04-19T11:24:55;100836.13;;;12.92;100.00
74834;BME280;63361;52.384;20.930;2023-04-19T11:27:20;100837.78;;;13.70;96.89
74834;BME280;63361;52.384;20.930;2023-04-19T11:29:46;100837.38;;;14.38;92.64
74834;BME280;63361;52.384;20.930;2023-04-19T11:32:12;100831.00;;;14.10;91.99
74834;BME280;63361;52.384;20.930;2023-04-19T11:34:38;100834.06;;;13.37;95.27
74834;BME280;63361;52.384;20.930;2023-04-19T11:37:04;100825.91;;;13.42;93.53
74834;BME280;63361;52.384;20.930;2023-04-19T11:39:29;100823.69;;;13.68;94.79
74834;BME280;63361;52.384;20.930;2023-04-19T11:41:55;100822.25;;;13.94;92.53
74834;BME280;63361;52.384;20.930;2023-04-19T11:44:20;100833.13;;;14.13;91.58
74834;BME280;63361;52.384;20.930;2023-04-19T11:46:59;100833.84;;;14.75;88.55
74834;BME280;63361;52.384;20.930;2023-04-19T11:49:26;100831.50;;;15.61;85.53
74834;BME280;63361;52.384;20.930;2023-04-19T11:51:55;100819.50;;;15.75;83.40
74834;BME280;63361;52.384;20.930;2023-04-19T11:54:22;100828.66;;;15.79;81.75
74834;BME280;63361;52.384;20.930;2023-04-19T11:56:58;100829.19;;;15.81;80.70
74834;BME280;63361;52.384;20.930;2023-04-19T11:59:24;100834.91;;;15.39;83.04
74834;BME280;63361;52.384;20.930;2023-04-19T12:01:49;100833.59;;;16.41;76.94
74834;BME280;63361;52.384;20.930;2023-04-19T12:04:14;100820.47;;;16.87;75.48
74834;BME280;63361;52.384;20.930;2023-04-19T12:06:40;100839.78;;;16.33;77.61
74834;BME280;63361;52.384;20.930;2023-04-19T12:09:06;100825.06;;;17.80;76.05
74834;BME280;63361;52.384;20.930;2023-04-19T12:11:44;100835.25;;;19.00;64.71
74834;BME280;63361;52.384;20.930;2023-04-19T12:14:15;100827.88;;;18.92;65.48
74834;BME280;63361;52.384;20.930;2023-04-19T12:16:42;100825.94;;;18.41;67.55
74834;BME280;63361;52.384;20.930;2023-04-19T12:19:18;100822.03;;;17.81;67.48
74834;BME280;63361;52.384;20.930;2023-04-19T12:21:45;100836.41;;;17.56;67.76
74834;BME280;63361;52.384;20.930;2023-04-19T12:24:13;100830.59;;;16.51;72.18
74834;BME280;63361;52.384;20.930;2023-04-19T12:26:52;100839.28;;;15.07;76.19
74834;BME280;63361;52.384;20.930;2023-04-19T12:29:19;100825.09;;;14.46;80.32
74834;BME280;63361;52.384;20.930;2023-04-19T12:31:44;100840.19;;;14.14;82.98
74834;BME280;63361;52.384;20.930;2023-04-19T12:34:09;100843.44;;;13.50;85.02
74834;BME280;63361;52.384;20.930;2023-04-19T12:36:35;100836.78;;;13.08;86.12
74834;BME280;63361;52.384;20.930;2023-04-19T12:39:00;100862.25;;;13.41;86.16
74834;BME280;63361;52.384;20.930;2023-04-19T12:41:25;100850.81;;;13.68;84.37
74834;BME280;63361;52.384;20.930;2023-04-19T12:43:51;100861.72;;;13.39;85.82
74834;BME280;63361;52.384;20.930;2023-04-19T12:46:16;100844.16;;;13.31;85.52
74834;BME280;63361;52.384;20.930;2023-04-19T12:48:41;100839.63;;;13.27;85.22
74834;BME280;63361;52.384;20.930;2023-04-19T12:51:07;100858.88;;;13.25;85.40
74834;BME280;63361;52.384;20.930;2023-04-19T12:53:33;100857.84;;;13.45;85.79
74834;BME280;63361;52.384;20.930;2023-04-19T12:55:58;100849.72;;;13.69;85.05